sensor_id;sensor_type;location;lat;lon;timestamp;temperature;humidity
61392;DHT22;47261;52.892;5.738;2023-06-26T00:00:15;22.60;88.10
61392;DHT22;47261;52.892;5.738;2023-06-26T00:02:41;22.60;88.10
61392;DHT22;47261;52.892;5.738;2023-06-26T00:05:07;22.60;88.20
61392;DHT22;47261;52.892;5.738;2023-06-26T00:07:33;22.60;88.30
61392;DHT22;47261;52.892;5.738;2023-06-26T00:10:03;22.60;88.40
61392;DHT22;47261;52.892;5.738;2023-06-26T00:12:29;22.60;88.40
61392;DHT22;47261;52.892;5.738;2023-06-26T00:14:55;22.60;88.50
61392;DHT22;47261;52.892;5.738;2023-06-26T00:17:21;22.60;88.60
61392;DHT22;47261;52.892;5.738;2023-06-26T00:19:47;22.50;88.70
61392;DHT22;47261;52.892;5.738;2023-06-26T00:22:12;22.50;89.10
61392;DHT22;47261;52.892;5.738;2023-06-26T00:24:38;22.40;89.20
61392;DHT22;47261;52.892;5.738;2023-06-26T00:27:04;22.40;89.50
61392;DHT22;47261;52.892;5.738;2023-06-26T00:29:30;22.40;89.80
61392;DHT22;47261;52.892;5.738;2023-06-26T00:31:55;22.30;90.00
61392;DHT22;47261;52.892;5.738;2023-06-26T00:34:21;22.30;90.10
61392;DHT22;47261;52.892;5.738;2023-06-26T00:36:47;22.30;90.20
61392;DHT22;47261;52.892;5.738;2023-06-26T00:39:12;22.30;90.30
61392;DHT22;47261;52.892;5.738;2023-06-26T00:41:39;22.20;90.40
61392;DHT22;47261;52.892;5.738;2023-06-26T00:44:05;22.20;90.50
61392;DHT22;47261;52.892;5.738;2023-06-26T00:46:31;22.20;90.50
61392;DHT22;47261;52.892;5.738;2023-06-26T00:48:59;22.20;90.40
61392;DHT22;47261;52.892;5.738;2023-06-26T00:51:27;22.20;90.40
61392;DHT22;47261;52.892;5.738;2023-06-26T00:53:53;22.30;90.30
61392;DHT22;47261;52.892;5.738;2023-06-26T00:56:20;22.30;90.30
61392;DHT22;47261;52.892;5.738;2023-06-26T00:58:46;22.30;90.30
61392;DHT22;47261;52.892;5.738;2023-06-26T01:01:12;22.30;90.20
61392;DHT22;47261;52.892;5.738;2023-06-26T01:03:48;22.30;90.20
61392;DHT22;47261;52.892;5.738;2023-06-26T01:06:17;22.30;90.20
61392;DHT22;47261;52.892;5.738;2023-06-26T01:08:44;22.20;90.50
61392;DHT22;47261;52.892;5.738;2023-06-26T01:11:11;22.20;90.30
61392;DHT22;47261;52.892;5.738;2023-06-26T01:13:38;22.20;90.30
61392;DHT22;47261;52.892;5.738;2023-06-26T01:16:05;22.20;90.40
61392;DHT22;47261;52.892;5.738;2023-06-26T01:18:32;22.20;90.40
61392;DHT22;47261;52.892;5.738;2023-06-26T01:20:58;22.20;90.40
61392;DHT22;47261;52.892;5.738;2023-06-26T01:23:30;22.20;90.40
61392;DHT22;47261;52.892;5.738;2023-06-26T01:26:17;22.20;90.30
61392;DHT22;47261;52.892;5.738;2023-06-26T01:28:44;22.30;90.30
61392;DHT22;47261;52.892;5.738;2023-06-26T01:31:14;22.30;90.20
61392;DHT22;47261;52.892;5.738;2023-06-26T01:33:41;22.40;90.20
61392;DHT22;47261;52.892;5.738;2023-06-26T01:36:07;22.40;90.10
61392;DHT22;47261;52.892;5.738;2023-06-26T01:38:33;22.50;90.10
61392;DHT22;47261;52.892;5.738;2023-06-26T01:41:00;22.50;90.00
61392;DHT22;47261;52.892;5.738;2023-06-26T01:46:23;22.70;89.70
61392;DHT22;47261;52.892;5.738;2023-06-26T01:48:59;22.70;89.50
61392;DHT22;47261;52.892;5.738;2023-06-26T01:51:32;22.80;90.10
61392;DHT22;47261;52.892;5.738;2023-06-26T01:54:01;22.80;90.00
61392;DHT22;47261;52.892;5.738;2023-06-26T01:56:28;22.90;88.80
61392;DHT22;47261;52.892;5.738;2023-06-26T01:58:55;23.00;88.20
61392;DHT22;47261;52.892;5.738;2023-06-26T02:01:21;23.00;87.90
61392;DHT22;47261;52.892;5.738;2023-06-26T02:03:48;23.10;88.00
61392;DHT22;47261;52.892;5.738;2023-06-26T02:06:14;23.10;88.10
61392;DHT22;47261;52.892;5.738;2023-06-26T02:08:40;23.10;87.90
61392;DHT22;47261;52.892;5.738;2023-06-26T02:11:06;23.10;87.60
61392;DHT22;47261;52.892;5.738;2023-06-26T02:13:31;23.10;87.90
61392;DHT22;47261;52.892;5.738;2023-06-26T02:15:57;23.10;87.90
61392;DHT22;47261;52.892;5.738;2023-06-26T02:18:23;23.10;88.30
61392;DHT22;47261;52.892;5.738;2023-06-26T02:20:49;23.00;88.60
61392;DHT22;47261;52.892;5.738;2023-06-26T02:23:15;23.00;88.70
61392;DHT22;47261;52.892;5.738;2023-06-26T02:25:41;22.90;88.80
61392;DHT22;47261;52.892;5.738;2023-06-26T02:28:06;22.90;89.20
61392;DHT22;47261;52.892;5.738;2023-06-26T02:30:32;22.80;89.20
61392;DHT22;47261;52.892;5.738;2023-06-26T02:32:58;22.80;89.80
61392;DHT22;47261;52.892;5.738;2023-06-26T02:35:25;22.70;89.20
61392;DHT22;47261;52.892;5.738;2023-06-26T02:37:50;22.70;89.50
61392;DHT22;47261;52.892;5.738;2023-06-26T02:40:16;22.60;89.70
61392;DHT22;47261;52.892;5.738;2023-06-26T02:42:41;22.50;89.80
61392;DHT22;47261;52.892;5.738;2023-06-26T02:45:08;22.50;90.10
61392;DHT22;47261;52.892;5.738;2023-06-26T02:47:34;22.50;90.20
61392;DHT22;47261;52.892;5.738;2023-06-26T02:49:59;22.40;90.40
61392;DHT22;47261;52.892;5.738;2023-06-26T02:52:25;22.30;90.60
61392;DHT22;47261;52.892;5.738;2023-06-26T02:54:50;22.20;90.80
61392;DHT22;47261;52.892;5.738;2023-06-26T02:57:16;22.20;91.10
61392;DHT22;47261;52.892;5.738;2023-06-26T02:59:42;22.10;91.30
61392;DHT22;47261;52.892;5.738;2023-06-26T03:02:08;22.00;91.60
61392;DHT22;47261;52.892;5.738;2023-06-26T03:04:34;22.00;92.10
61392;DHT22;47261;52.892;5.738;2023-06-26T03:07:03;21.90;92.40
61392;DHT22;47261;52.892;5.738;2023-06-26T03:09:28;21.90;92.70
61392;DHT22;47261;52.892;5.738;2023-06-26T03:11:54;21.80;93.00
61392;DHT22;47261;52.892;5.738;2023-06-26T03:14:21;21.80;93.40
61392;DHT22;47261;52.892;5.738;2023-06-26T03:16:46;21.80;93.70
61392;DHT22;47261;52.892;5.738;2023-06-26T03:19:12;21.70;93.90
61392;DHT22;47261;52.892;5.738;2023-06-26T03:21:38;21.70;94.10
61392;DHT22;47261;52.892;5.738;2023-06-26T03:24:04;21.70;94.00
61392;DHT22;47261;52.892;5.738;2023-06-26T03:26:29;21.60;94.10
61392;DHT22;47261;52.892;5.738;2023-06-26T03:28:55;21.60;94.20
61392;DHT22;47261;52.892;5.738;2023-06-26T03:31:21;21.60;94.40
61392;DHT22;47261;52.892;5.738;2023-06-26T03:33:47;21.60;94.50
61392;DHT22;47261;52.892;5.738;2023-06-26T03:36:13;21.60;94.60
61392;DHT22;47261;52.892;5.738;2023-06-26T03:38:38;21.50;94.60
61392;DHT22;47261;52.892;5.738;2023-06-26T03:41:04;21.50;94.60
61392;DHT22;47261;52.892;5.738;2023-06-26T03:43:30;21.50;94.60
61392;DHT22;47261;52.892;5.738;2023-06-26T03:45:55;21.50;94.50
61392;DHT22;47261;52.892;5.738;2023-06-26T03:48:21;21.40;94.40
61392;DHT22;47261;52.892;5.738;2023-06-26T03:50:47;21.40;94.40
61392;DHT22;47261;52.892;5.738;2023-06-26T03:53:12;21.30;94.20
61392;DHT22;47261;52.892;5.738;2023-06-26T03:55:38;21.30;94.20
61392;DHT22;47261;52.892;5.738;2023-06-26T03:58:04;21.30;94.30
61392;DHT22;47261;52.892;5.738;2023-06-26T04:00:30;21.20;94.40
61392;DHT22;47261;52.892;5.738;2023-06-26T04:02:56;21.20;94.40
61392;DHT22;47261;52.892;5.738;2023-06-26T04:05:22;21.10;94.50
61392;DHT22;47261;52.892;5.738;2023-06-26T04:07:52;21.10;94.70
61392;DHT22;47261;52.892;5.738;2023-06-26T04:10:18;21.10;94.90
61392;DHT22;47261;52.892;5.738;2023-06-26T04:12:46;21.00;95.00
61392;DHT22;47261;52.892;5.738;2023-06-26T04:15:12;21.00;95.10
61392;DHT22;47261;52.892;5.738;2023-06-26T04:17:38;21.00;95.30
61392;DHT22;47261;52.892;5.738;2023-06-26T04:20:04;21.00;95.40
61392;DHT22;47261;52.892;5.738;2023-06-26T04:22:32;21.00;95.50
61392;DHT22;47261;52.892;5.738;2023-06-26T04:24:58;21.00;95.60
61392;DHT22;47261;52.892;5.738;2023-06-26T04:27:23;21.00;95.80
61392;DHT22;47261;52.892;5.738;2023-06-26T04:29:49;21.00;96.00
61392;DHT22;47261;52.892;5.738;2023-06-26T04:32:15;21.10;96.30
61392;DHT22;47261;52.892;5.738;2023-06-26T04:34:41;21.10;96.30
61392;DHT22;47261;52.892;5.738;2023-06-26T04:37:09;21.10;96.30
61392;DHT22;47261;52.892;5.738;2023-06-26T04:39:38;21.10;96.20
61392;DHT22;47261;52.892;5.738;2023-06-26T04:42:05;21.10;96.30
61392;DHT22;47261;52.892;5.738;2023-06-26T04:44:32;21.00;96.30
61392;DHT22;47261;52.892;5.738;2023-06-26T04:46:57;21.00;96.30
61392;DHT22;47261;52.892;5.738;2023-06-26T04:49:23;20.90;96.30
61392;DHT22;47261;52.892;5.738;2023-06-26T04:51:49;20.80;96.30
61392;DHT22;47261;52.892;5.738;2023-06-26T04:54:16;20.70;96.10
61392;DHT22;47261;52.892;5.738;2023-06-26T04:56:42;20.60;96.00
61392;DHT22;47261;52.892;5.738;2023-06-26T04:59:09;20.60;95.90
61392;DHT22;47261;52.892;5.738;2023-06-26T05:01:39;20.50;95.80
61392;DHT22;47261;52.892;5.738;2023-06-26T05:04:05;20.40;95.70
61392;DHT22;47261;52.892;5.738;2023-06-26T05:06:31;20.40;95.50
61392;DHT22;47261;52.892;5.738;2023-06-26T05:08:56;20.40;95.20
61392;DHT22;47261;52.892;5.738;2023-06-26T05:11:22;20.40;95.10
61392;DHT22;47261;52.892;5.738;2023-06-26T05:13:49;20.40;95.00
61392;DHT22;47261;52.892;5.738;2023-06-26T05:16:15;20.40;94.80
61392;DHT22;47261;52.892;5.738;2023-06-26T05:18:40;20.40;94.70
61392;DHT22;47261;52.892;5.738;2023-06-26T05:21:06;20.40;94.60
61392;DHT22;47261;52.892;5.738;2023-06-26T05:23:33;20.40;94.60
61392;DHT22;47261;52.892;5.738;2023-06-26T05:26:00;20.50;94.60
61392;DHT22;47261;52.892;5.738;2023-06-26T05:28:28;20.50;94.50
61392;DHT22;47261;52.892;5.738;2023-06-26T05:30:56;20.70;94.10
61392;DHT22;47261;52.892;5.738;2023-06-26T05:33:24;21.10;93.40
61392;DHT22;47261;52.892;5.738;2023-06-26T05:35:52;21.50;92.60
61392;DHT22;47261;52.892;5.738;2023-06-26T05:38:19;21.90;91.90
61392;DHT22;47261;52.892;5.738;2023-06-26T05:40:45;22.30;91.20
61392;DHT22;47261;52.892;5.738;2023-06-26T05:43:10;22.60;90.80
61392;DHT22;47261;52.892;5.738;2023-06-26T05:45:36;22.80;90.00
61392;DHT22;47261;52.892;5.738;2023-06-26T05:48:02;22.90;89.50
61392;DHT22;47261;52.892;5.738;2023-06-26T05:50:28;23.00;88.60
61392;DHT22;47261;52.892;5.738;2023-06-26T05:52:54;23.10;87.80
61392;DHT22;47261;52.892;5.738;2023-06-26T05:55:21;23.30;86.70
61392;DHT22;47261;52.892;5.738;2023-06-26T05:57:47;23.30;85.60
61392;DHT22;47261;52.892;5.738;2023-06-26T06:00:13;23.40;85.00
61392;DHT22;47261;52.892;5.738;2023-06-26T06:02:40;23.50;84.80
61392;DHT22;47261;52.892;5.738;2023-06-26T06:05:07;23.60;84.50
61392;DHT22;47261;52.892;5.738;2023-06-26T06:07:33;23.80;83.90
61392;DHT22;47261;52.892;5.738;2023-06-26T06:10:00;23.90;83.30
61392;DHT22;47261;52.892;5.738;2023-06-26T06:12:25;24.10;83.00
61392;DHT22;47261;52.892;5.738;2023-06-26T06:14:52;24.20;82.50
61392;DHT22;47261;52.892;5.738;2023-06-26T06:17:18;24.30;81.90
61392;DHT22;47261;52.892;5.738;2023-06-26T06:19:45;24.40;80.90
61392;DHT22;47261;52.892;5.738;2023-06-26T06:22:10;24.40;79.80
61392;DHT22;47261;52.892;5.738;2023-06-26T06:24:36;24.40;79.30
61392;DHT22;47261;52.892;5.738;2023-06-26T06:27:02;24.40;78.80
61392;DHT22;47261;52.892;5.738;2023-06-26T06:29:27;24.30;78.90
61392;DHT22;47261;52.892;5.738;2023-06-26T06:31:53;24.10;78.90
61392;DHT22;47261;52.892;5.738;2023-06-26T06:34:19;23.90;79.10
61392;DHT22;47261;52.892;5.738;2023-06-26T06:36:44;23.60;80.20
61392;DHT22;47261;52.892;5.738;2023-06-26T06:39:10;23.40;81.60
61392;DHT22;47261;52.892;5.738;2023-06-26T06:41:36;23.20;81.80
61392;DHT22;47261;52.892;5.738;2023-06-26T06:44:02;23.10;83.10
61392;DHT22;47261;52.892;5.738;2023-06-26T06:46:27;22.90;82.90
61392;DHT22;47261;52.892;5.738;2023-06-26T06:48:53;22.80;83.60
61392;DHT22;47261;52.892;5.738;2023-06-26T06:51:19;22.70;84.00
61392;DHT22;47261;52.892;5.738;2023-06-26T06:53:45;22.70;84.90
61392;DHT22;47261;52.892;5.738;2023-06-26T06:56:10;22.60;85.60
61392;DHT22;47261;52.892;5.738;2023-06-26T06:58:36;22.50;85.80
61392;DHT22;47261;52.892;5.738;2023-06-26T07:01:02;22.50;85.90
61392;DHT22;47261;52.892;5.738;2023-06-26T07:03:28;22.40;85.60
61392;DHT22;47261;52.892;5.738;2023-06-26T07:05:55;22.40;85.90
61392;DHT22;47261;52.892;5.738;2023-06-26T07:08:21;22.40;86.30
61392;DHT22;47261;52.892;5.738;2023-06-26T07:10:46;22.40;86.30
61392;DHT22;47261;52.892;5.738;2023-06-26T07:13:12;22.50;86.50
61392;DHT22;47261;52.892;5.738;2023-06-26T07:15:38;22.50;87.00
61392;DHT22;47261;52.892;5.738;2023-06-26T07:18:04;22.70;87.20
61392;DHT22;47261;52.892;5.738;2023-06-26T07:20:29;22.80;86.80
61392;DHT22;47261;52.892;5.738;2023-06-26T07:22:55;23.00;86.10
61392;DHT22;47261;52.892;5.738;2023-06-26T07:25:21;23.00;85.60
61392;DHT22;47261;52.892;5.738;2023-06-26T07:27:46;23.00;85.00
61392;DHT22;47261;52.892;5.738;2023-06-26T07:30:12;23.00;84.50
61392;DHT22;47261;52.892;5.738;2023-06-26T07:32:38;23.00;84.80
61392;DHT22;47261;52.892;5.738;2023-06-26T07:35:06;22.90;84.50
61392;DHT22;47261;52.892;5.738;2023-06-26T07:37:31;22.90;84.70
61392;DHT22;47261;52.892;5.738;2023-06-26T07:39:57;22.80;84.70
61392;DHT22;47261;52.892;5.738;2023-06-26T07:42:23;22.80;84.80
61392;DHT22;47261;52.892;5.738;2023-06-26T07:44:48;22.90;85.10
61392;DHT22;47261;52.892;5.738;2023-06-26T07:47:15;22.90;85.00
61392;DHT22;47261;52.892;5.738;2023-06-26T07:49:40;22.90;84.90
61392;DHT22;47261;52.892;5.738;2023-06-26T07:52:06;22.80;84.80
61392;DHT22;47261;52.892;5.738;2023-06-26T07:54:32;22.70;85.10
61392;DHT22;47261;52.892;5.738;2023-06-26T07:57:01;22.60;85.10
61392;DHT22;47261;52.892;5.738;2023-06-26T07:59:29;22.70;85.60
61392;DHT22;47261;52.892;5.738;2023-06-26T08:01:56;22.70;85.10
61392;DHT22;47261;52.892;5.738;2023-06-26T08:04:24;22.80;85.50
61392;DHT22;47261;52.892;5.738;2023-06-26T08:06:56;22.80;85.30
61392;DHT22;47261;52.892;5.738;2023-06-26T08:09:23;22.70;85.00
61392;DHT22;47261;52.892;5.738;2023-06-26T08:11:50;22.70;85.10
61392;DHT22;47261;52.892;5.738;2023-06-26T08:14:16;22.80;85.40
61392;DHT22;47261;52.892;5.738;2023-06-26T08:16:42;22.90;84.80
61392;DHT22;47261;52.892;5.738;2023-06-26T08:19:09;22.80;83.30
61392;DHT22;47261;52.892;5.738;2023-06-26T08:21:35;22.80;83.20
61392;DHT22;47261;52.892;5.738;2023-06-26T08:24:01;22.80;83.60
61392;DHT22;47261;52.892;5.738;2023-06-26T08:26:27;22.90;84.10
61392;DHT22;47261;52.892;5.738;2023-06-26T08:28:52;22.90;84.20
61392;DHT22;47261;52.892;5.738;2023-06-26T08:31:18;23.00;84.40
61392;DHT22;47261;52.892;5.738;2023-06-26T08:33:44;23.10;84.60
61392;DHT22;47261;52.892;5.738;2023-06-26T08:36:10;23.10;83.10
61392;DHT22;47261;52.892;5.738;2023-06-26T08:38:35;23.10;83.20
61392;DHT22;47261;52.892;5.738;2023-06-26T08:41:01;23.10;83.80
61392;DHT22;47261;52.892;5.738;2023-06-26T08:43:27;23.10;83.60
61392;DHT22;47261;52.892;5.738;2023-06-26T08:45:53;23.10;83.30
61392;DHT22;47261;52.892;5.738;2023-06-26T08:48:21;23.10;82.80
61392;DHT22;47261;52.892;5.738;2023-06-26T08:50:52;23.10;83.50
61392;DHT22;47261;52.892;5.738;2023-06-26T08:55:58;23.30;83.50
61392;DHT22;47261;52.892;5.738;2023-06-26T08:58:24;23.30;83.40
61392;DHT22;47261;52.892;5.738;2023-06-26T09:00:50;23.30;83.90
61392;DHT22;47261;52.892;5.738;2023-06-26T09:03:17;23.50;83.50
61392;DHT22;47261;52.892;5.738;2023-06-26T09:05:43;23.50;82.60
61392;DHT22;47261;52.892;5.738;2023-06-26T09:08:11;23.70;82.20
61392;DHT22;47261;52.892;5.738;2023-06-26T09:10:39;23.60;80.70
61392;DHT22;47261;52.892;5.738;2023-06-26T09:13:05;23.50;81.50
61392;DHT22;47261;52.892;5.738;2023-06-26T09:15:37;23.50;82.30
61392;DHT22;47261;52.892;5.738;2023-06-26T09:18:05;23.60;82.80
61392;DHT22;47261;52.892;5.738;2023-06-26T09:20:31;23.70;82.50
61392;DHT22;47261;52.892;5.738;2023-06-26T09:22:59;23.70;82.00
61392;DHT22;47261;52.892;5.738;2023-06-26T09:25:25;23.80;82.90
61392;DHT22;47261;52.892;5.738;2023-06-26T09:27:52;24.00;83.90
61392;DHT22;47261;52.892;5.738;2023-06-26T09:30:18;24.10;82.00
61392;DHT22;47261;52.892;5.738;2023-06-26T09:32:44;24.20;81.40
61392;DHT22;47261;52.892;5.738;2023-06-26T09:35:10;24.20;80.60
61392;DHT22;47261;52.892;5.738;2023-06-26T09:37:36;24.20;80.40
61392;DHT22;47261;52.892;5.738;2023-06-26T09:40:02;24.00;79.50
61392;DHT22;47261;52.892;5.738;2023-06-26T09:42:29;23.90;79.40
61392;DHT22;47261;52.892;5.738;2023-06-26T09:44:55;23.70;79.30
61392;DHT22;47261;52.892;5.738;2023-06-26T09:47:21;23.60;79.20
61392;DHT22;47261;52.892;5.738;2023-06-26T09:49:47;23.60;79.30
61392;DHT22;47261;52.892;5.738;2023-06-26T09:52:15;23.70;80.40
61392;DHT22;47261;52.892;5.738;2023-06-26T09:54:45;23.90;79.90
61392;DHT22;47261;52.892;5.738;2023-06-26T09:57:17;24.10;78.50
61392;DHT22;47261;52.892;5.738;2023-06-26T09:59:44;24.30;77.60
61392;DHT22;47261;52.892;5.738;2023-06-26T10:02:11;24.40;77.70
61392;DHT22;47261;52.892;5.738;2023-06-26T10:04:38;24.50;78.00
61392;DHT22;47261;52.892;5.738;2023-06-26T10:07:10;24.60;77.40
61392;DHT22;47261;52.892;5.738;2023-06-26T10:09:40;24.80;76.70
61392;DHT22;47261;52.892;5.738;2023-06-26T10:12:23;24.90;77.10
61392;DHT22;47261;52.892;5.738;2023-06-26T10:14:53;25.10;76.00
61392;DHT22;47261;52.892;5.738;2023-06-26T10:17:20;25.00;75.40
61392;DHT22;47261;52.892;5.738;2023-06-26T10:19:47;24.70;75.40
61392;DHT22;47261;52.892;5.738;2023-06-26T10:22:15;24.50;75.80
61392;DHT22;47261;52.892;5.738;2023-06-26T10:24:43;24.20;75.70
61392;DHT22;47261;52.892;5.738;2023-06-26T10:27:21;24.10;77.00
61392;DHT22;47261;52.892;5.738;2023-06-26T10:29:50;24.10;78.10
61392;DHT22;47261;52.892;5.738;2023-06-26T10:32:17;24.30;78.10
61392;DHT22;47261;52.892;5.738;2023-06-26T10:34:44;24.50;76.50
61392;DHT22;47261;52.892;5.738;2023-06-26T10:37:12;24.70;74.70
61392;DHT22;47261;52.892;5.738;2023-06-26T10:39:47;25.00;75.10
61392;DHT22;47261;52.892;5.738;2023-06-26T10:42:15;25.20;74.10
61392;DHT22;47261;52.892;5.738;2023-06-26T10:44:43;25.20;72.70
61392;DHT22;47261;52.892;5.738;2023-06-26T10:47:10;25.20;72.20
61392;DHT22;47261;52.892;5.738;2023-06-26T10:49:37;25.30;72.40
61392;DHT22;47261;52.892;5.738;2023-06-26T10:52:05;25.40;72.00
61392;DHT22;47261;52.892;5.738;2023-06-26T10:54:32;25.60;72.30
61392;DHT22;47261;52.892;5.738;2023-06-26T10:57:01;25.80;71.50
61392;DHT22;47261;52.892;5.738;2023-06-26T10:59:31;25.80;70.80
61392;DHT22;47261;52.892;5.738;2023-06-26T11:02:01;25.80;70.50
61392;DHT22;47261;52.892;5.738;2023-06-26T11:04:47;25.90;70.40
61392;DHT22;47261;52.892;5.738;2023-06-26T11:07:26;26.00;70.10
61392;DHT22;47261;52.892;5.738;2023-06-26T11:12:42;26.00;69.70
61392;DHT22;47261;52.892;5.738;2023-06-26T11:15:16;26.10;70.50
61392;DHT22;47261;52.892;5.738;2023-06-26T11:17:43;26.20;69.60
61392;DHT22;47261;52.892;5.738;2023-06-26T11:20:12;26.30;68.20
61392;DHT22;47261;52.892;5.738;2023-06-26T11:22:41;26.30;66.30
61392;DHT22;47261;52.892;5.738;2023-06-26T11:25:09;26.20;66.80
61392;DHT22;47261;52.892;5.738;2023-06-26T11:30:08;26.10;67.70
61392;DHT22;47261;52.892;5.738;2023-06-26T11:32:36;26.10;67.50
61392;DHT22;47261;52.892;5.738;2023-06-26T11:35:03;25.80;64.10
61392;DHT22;47261;52.892;5.738;2023-06-26T11:37:31;25.50;65.50
61392;DHT22;47261;52.892;5.738;2023-06-26T11:39:57;25.20;66.50
61392;DHT22;47261;52.892;5.738;2023-06-26T11:42:23;25.10;67.10
61392;DHT22;47261;52.892;5.738;2023-06-26T11:44:51;25.00;67.70
61392;DHT22;47261;52.892;5.738;2023-06-26T11:47:19;25.00;68.70
61392;DHT22;47261;52.892;5.738;2023-06-26T11:49:46;25.20;69.30
61392;DHT22;47261;52.892;5.738;2023-06-26T11:52:12;25.30;67.70
61392;DHT22;47261;52.892;5.738;2023-06-26T11:54:39;25.30;67.40
61392;DHT22;47261;52.892;5.738;2023-06-26T11:57:05;25.20;65.90
61392;DHT22;47261;52.892;5.738;2023-06-26T11:59:35;25.00;66.30
61392;DHT22;47261;52.892;5.738;2023-06-26T12:02:08;24.80;67.50
61392;DHT22;47261;52.892;5.738;2023-06-26T12:04:36;24.80;68.40
61392;DHT22;47261;52.892;5.738;2023-06-26T12:07:03;24.90;67.20
61392;DHT22;47261;52.892;5.738;2023-06-26T12:09:30;24.90;67.10
61392;DHT22;47261;52.892;5.738;2023-06-26T12:11:59;24.80;66.90
61392;DHT22;47261;52.892;5.738;2023-06-26T12:14:26;24.70;68.00
61392;DHT22;47261;52.892;5.738;2023-06-26T12:16:54;24.60;68.70
61392;DHT22;47261;52.892;5.738;2023-06-26T12:19:25;24.40;69.00
61392;DHT22;47261;52.892;5.738;2023-06-26T12:21:52;24.20;70.10
61392;DHT22;47261;52.892;5.738;2023-06-26T12:24:22;24.10;69.80
61392;DHT22;47261;52.892;5.738;2023-06-26T12:26:55;24.00;70.20
61392;DHT22;47261;52.892;5.738;2023-06-26T12:29:33;23.90;71.80
61392;DHT22;47261;52.892;5.738;2023-06-26T12:31:59;23.80;71.90
61392;DHT22;47261;52.892;5.738;2023-06-26T12:34:35;23.70;71.60
61392;DHT22;47261;52.892;5.738;2023-06-26T12:39:49;23.40;72.70
61392;DHT22;47261;52.892;5.738;2023-06-26T12:42:20;23.20;73.30
61392;DHT22;47261;52.892;5.738;2023-06-26T12:44:46;23.10;73.70
61392;DHT22;47261;52.892;5.738;2023-06-26T12:47:14;23.10;74.40
61392;DHT22;47261;52.892;5.738;2023-06-26T12:49:41;22.90;74.80
61392;DHT22;47261;52.892;5.738;2023-06-26T12:52:14;22.80;75.40
61392;DHT22;47261;52.892;5.738;2023-06-26T12:54:42;22.80;76.00
61392;DHT22;47261;52.892;5.738;2023-06-26T12:57:08;22.80;75.40
61392;DHT22;47261;52.892;5.738;2023-06-26T12:59:36;22.80;74.90
61392;DHT22;47261;52.892;5.738;2023-06-26T13:02:03;22.80;76.00
61392;DHT22;47261;52.892;5.738;2023-06-26T13:04:29;22.80;75.80
61392;DHT22;47261;52.892;5.738;2023-06-26T13:06:55;22.80;75.50
61392;DHT22;47261;52.892;5.738;2023-06-26T13:09:22;22.80;74.10
61392;DHT22;47261;52.892;5.738;2023-06-26T13:11:47;22.80;73.90
61392;DHT22;47261;52.892;5.738;2023-06-26T13:14:13;22.80;74.20
61392;DHT22;47261;52.892;5.738;2023-06-26T13:16:40;22.80;74.00
61392;DHT22;47261;52.892;5.738;2023-06-26T13:19:06;22.90;74.60
61392;DHT22;47261;52.892;5.738;2023-06-26T13:21:33;22.90;71.70
61392;DHT22;47261;52.892;5.738;2023-06-26T13:23:58;22.90;72.20
61392;DHT22;47261;52.892;5.738;2023-06-26T13:26:25;22.90;71.00
61392;DHT22;47261;52.892;5.738;2023-06-26T13:28:52;22.90;72.30
61392;DHT22;47261;52.892;5.738;2023-06-26T13:31:18;22.90;71.10
61392;DHT22;47261;52.892;5.738;2023-06-26T13:33:44;22.80;72.40
61392;DHT22;47261;52.892;5.738;2023-06-26T13:36:10;22.80;72.90
61392;DHT22;47261;52.892;5.738;2023-06-26T13:38:36;22.90;73.30
61392;DHT22;47261;52.892;5.738;2023-06-26T13:41:02;22.90;73.40
61392;DHT22;47261;52.892;5.738;2023-06-26T13:43:28;22.90;73.20
61392;DHT22;47261;52.892;5.738;2023-06-26T13:45:54;22.90;72.50
61392;DHT22;47261;52.892;5.738;2023-06-26T13:48:20;23.00;72.60
61392;DHT22;47261;52.892;5.738;2023-06-26T13:50:46;23.10;72.20
61392;DHT22;47261;52.892;5.738;2023-06-26T13:53:13;23.30;72.10
61392;DHT22;47261;52.892;5.738;2023-06-26T13:55:40;23.40;71.30
61392;DHT22;47261;52.892;5.738;2023-06-26T13:58:05;23.60;70.20
61392;DHT22;47261;52.892;5.738;2023-06-26T14:00:35;23.70;69.00
61392;DHT22;47261;52.892;5.738;2023-06-26T14:03:02;23.90;68.50
61392;DHT22;47261;52.892;5.738;2023-06-26T14:05:29;23.90;68.00
61392;DHT22;47261;52.892;5.738;2023-06-26T14:07:55;23.90;68.10
61392;DHT22;47261;52.892;5.738;2023-06-26T14:10:22;23.80;68.20
61392;DHT22;47261;52.892;5.738;2023-06-26T14:12:48;23.70;68.00
61392;DHT22;47261;52.892;5.738;2023-06-26T14:15:13;23.60;68.90
61392;DHT22;47261;52.892;5.738;2023-06-26T14:17:39;23.40;68.50
61392;DHT22;47261;52.892;5.738;2023-06-26T14:20:09;23.30;69.70
61392;DHT22;47261;52.892;5.738;2023-06-26T14:22:42;23.30;70.60
61392;DHT22;47261;52.892;5.738;2023-06-26T14:25:10;23.20;70.20
61392;DHT22;47261;52.892;5.738;2023-06-26T14:27:36;23.10;70.60
61392;DHT22;47261;52.892;5.738;2023-06-26T14:30:03;23.10;71.20
61392;DHT22;47261;52.892;5.738;2023-06-26T14:32:29;23.10;71.80
61392;DHT22;47261;52.892;5.738;2023-06-26T14:34:56;23.10;72.60
61392;DHT22;47261;52.892;5.738;2023-06-26T14:37:22;23.10;71.20
61392;DHT22;47261;52.892;5.738;2023-06-26T14:39:47;23.10;71.70
61392;DHT22;47261;52.892;5.738;2023-06-26T14:42:13;23.10;71.70
61392;DHT22;47261;52.892;5.738;2023-06-26T14:44:39;23.20;71.70
61392;DHT22;47261;52.892;5.738;2023-06-26T14:47:04;23.20;71.50
61392;DHT22;47261;52.892;5.738;2023-06-26T14:49:30;23.10;71.30
61392;DHT22;47261;52.892;5.738;2023-06-26T14:51:56;23.10;71.50
61392;DHT22;47261;52.892;5.738;2023-06-26T14:54:22;23.10;71.60
61392;DHT22;47261;52.892;5.738;2023-06-26T14:56:48;23.10;71.20
61392;DHT22;47261;52.892;5.738;2023-06-26T14:59:14;23.10;71.40
61392;DHT22;47261;52.892;5.738;2023-06-26T15:01:39;23.00;71.00
61392;DHT22;47261;52.892;5.738;2023-06-26T15:04:06;22.90;70.30
61392;DHT22;47261;52.892;5.738;2023-06-26T15:06:32;22.90;70.70
61392;DHT22;47261;52.892;5.738;2023-06-26T15:08:58;22.80;71.60
61392;DHT22;47261;52.892;5.738;2023-06-26T15:11:24;22.80;72.00
61392;DHT22;47261;52.892;5.738;2023-06-26T15:13:50;22.70;71.70
61392;DHT22;47261;52.892;5.738;2023-06-26T15:16:16;22.70;71.30
61392;DHT22;47261;52.892;5.738;2023-06-26T15:18:42;22.70;71.10
61392;DHT22;47261;52.892;5.738;2023-06-26T15:21:07;22.70;71.30
61392;DHT22;47261;52.892;5.738;2023-06-26T15:23:34;22.70;71.60
61392;DHT22;47261;52.892;5.738;2023-06-26T15:26:00;22.70;71.30
61392;DHT22;47261;52.892;5.738;2023-06-26T15:28:25;22.70;72.20
61392;DHT22;47261;52.892;5.738;2023-06-26T15:30:51;22.60;70.50
61392;DHT22;47261;52.892;5.738;2023-06-26T15:33:17;22.60;69.80
61392;DHT22;47261;52.892;5.738;2023-06-26T15:35:42;22.60;70.00
61392;DHT22;47261;52.892;5.738;2023-06-26T15:38:08;22.50;69.50
61392;DHT22;47261;52.892;5.738;2023-06-26T15:40:34;22.50;69.90